Chapel Arm, Canada
Current Conditions -  °F | °C
As of 9:00 PM on Wednesday 24 Dec 2014 (Local Time) from CYYT Reporting Station
Overcast Overcast  
Wind Chill: 28°   Ceiling: 2600
Heat Index: 28°   Visibility: 15mi
Dew Point: 27°   Wind: 3mph
Humidity: 93%   Direction: 330°NNW
Pressure: 30.45"   Gusts: NA
Location:  47.52°N, 53.67°W
Report Text: CYYT 250000Z 33003KT 270V340 15SM OVC026 M02/M03 A3045 RMK SC8 SLP318
Loading
Personal Weather Stations






























Interactive Weather Map New forecast layout! Learn more

10-Day Weather Forecast

Advertisements
Track Severe Weather on mobile